Time;durP1;ratioP1;P1;durP2;ratioP2;P2;SDS_P1;SDS_P2;PMS_P1;PMS_P2;Temp;Humidity;BMP_temperature;BMP_pressure;BME280_temperature;BME280_humidity;BME280_pressure;Samples;Min_cycle;Max_cycle;Signal;HPM_P1;HPM_P2
2022/10/19 00:00:28;;;;;;;;;8.25;6.25;;;;;18.56;67.03;101745.66;5099586;27;49744;-50
2022/10/19 00:02:54;;;;;;;;;8.75;7.00;;;;;18.54;66.76;101742.22;5096030;27;56979;-51
2022/10/19 00:05:19;;;;;;;;;6.25;6.25;;;;;18.55;66.88;101754.53;5097375;27;72394;-50
2022/10/19 00:07:44;;;;;;;;;8.25;7.00;;;;;18.53;66.97;101751.94;5079857;27;45409;-49
2022/10/19 00:10:10;;;;;;;;;7.00;7.00;;;;;18.53;66.88;101737.84;5098901;27;65456;-47
2022/10/19 00:12:36;;;;;;;;;10.25;8.00;;;;;18.52;66.78;101744.06;5096955;27;56131;-47
2022/10/19 00:15:02;;;;;;;;;11.25;8.00;;;;;18.51;67.03;101732.59;5100564;27;46433;-48
2022/10/19 00:17:28;;;;;;;;;8.25;7.25;;;;;18.50;66.88;101730.03;5099444;27;45413;-50
2022/10/19 00:19:53;;;;;;;;;10.00;8.25;;;;;18.50;66.91;101730.91;5100086;27;51526;-49
2022/10/19 00:22:18;;;;;;;;;8.75;7.00;;;;;18.49;66.75;101736.28;5089641;27;72122;-50
2022/10/19 00:24:45;;;;;;;;;9.00;8.00;;;;;18.49;66.71;101725.66;5087682;27;46966;-51
2022/10/19 00:27:10;;;;;;;;;9.50;7.00;;;;;18.47;66.80;101727.50;5094467;27;45349;-50
2022/10/19 00:29:35;;;;;;;;;7.25;7.25;;;;;18.48;66.93;101731.88;5100024;27;45324;-51
2022/10/19 00:32:00;;;;;;;;;10.00;9.00;;;;;18.47;67.04;101732.78;5098728;27;68058;-51
2022/10/19 00:34:26;;;;;;;;;8.00;7.00;;;;;18.47;66.96;101722.19;5094908;27;67600;-47
2022/10/19 00:36:51;;;;;;;;;9.25;7.00;;;;;18.45;66.76;101711.69;5066998;27;45454;-48
2022/10/19 00:39:17;;;;;;;;;9.50;8.25;;;;;18.46;66.79;101718.69;5098485;27;50978;-46
2022/10/19 00:41:45;;;;;;;;;10.00;7.75;;;;;18.44;66.72;101704.66;5085518;27;45481;-50
2022/10/19 00:44:10;;;;;;;;;12.75;8.00;;;;;18.42;66.85;101698.56;5097770;27;46417;-50
2022/10/19 00:46:40;;;;;;;;;8.67;8.67;;;;;18.42;67.15;101701.22;5098619;27;45386;-50
2022/10/19 00:49:10;;;;;;;;;7.00;6.75;;;;;18.39;67.02;101698.69;5096900;27;45375;-46
2022/10/19 00:51:38;;;;;;;;;7.50;7.00;;;;;18.37;67.15;101701.41;5073900;28;45273;-49
2022/10/19 00:54:05;;;;;;;;;9.00;8.00;;;;;18.36;66.96;101696.16;5064377;27;46369;-49
2022/10/19 00:56:31;;;;;;;;;12.00;8.75;;;;;18.32;66.86;101695.44;5093543;27;45301;-56
2022/10/19 00:58:57;;;;;;;;;9.25;7.00;;;;;18.30;66.89;101689.38;5079826;27;45355;-48
2022/10/19 01:01:23;;;;;;;;;8.25;7.25;;;;;18.28;66.93;101699.16;5099827;27;45473;-52
2022/10/19 01:03:49;;;;;;;;;10.00;6.75;;;;;18.24;67.11;101691.41;5081026;27;46192;-47
2022/10/19 01:06:16;;;;;;;;;7.00;7.00;;;;;18.19;66.92;101686.34;5077559;27;45259;-49
2022/10/19 01:08:41;;;;;;;;;7.50;6.75;;;;;18.17;66.95;101681.09;5098955;27;45646;-52
2022/10/19 01:11:19;;;;;;;;;9.25;6.75;;;;;18.17;67.10;101681.09;5094242;27;51764;-50
2022/10/19 01:13:56;;;;;;;;;12.25;9.00;;;;;18.16;66.94;101691.75;5078663;27;46409;-47
2022/10/19 01:16:46;;;;;;;;;8.25;8.25;;;;;18.14;67.03;101675.94;5089267;27;45316;-51
2022/10/19 01:19:12;;;;;;;;;8.50;7.00;;;;;18.13;67.08;101681.28;5076512;27;45304;-49
2022/10/19 01:21:45;;;;;;;;;11.50;8.75;;;;;18.13;67.00;101691.88;5097322;27;45288;-48
2022/10/19 01:24:34;;;;;;;;;8.75;8.00;;;;;18.11;66.92;101686.66;5080814;27;46226;-50
2022/10/19 01:27:21;;;;;;;;;9.00;7.00;;;;;18.09;67.12;101677.91;5090296;27;45413;-51
2022/10/19 01:30:01;;;;;;;;;8.25;8.25;;;;;18.07;66.86;101674.47;5076152;27;45540;-50
2022/10/19 01:32:51;;;;;;;;;6.50;6.00;;;;;18.06;67.17;101663.94;5094767;27;45451;-51
2022/10/19 01:35:34;;;;;;;;;8.50;7.00;;;;;18.04;67.10;101669.31;5064185;27;47910;-50
2022/10/19 01:38:14;;;;;;;;;6.75;6.00;;;;;18.05;66.94;101675.47;5060870;28;45278;-49
2022/10/19 01:40:46;;;;;;;;;8.25;7.25;;;;;18.02;67.26;101665.88;5091835;27;45541;-49
2022/10/19 01:43:25;;;;;;;;;8.00;6.25;;;;;18.01;66.93;101667.66;5076476;27;45458;-48
2022/10/19 01:45:57;;;;;;;;;7.00;6.00;;;;;18.01;67.35;101670.31;5076694;27;46409;-46
2022/10/19 01:48:29;;;;;;;;;11.00;7.75;;;;;18.01;67.21;101664.16;5060133;27;45803;-48
2022/10/19 01:51:03;;;;;;;;;11.00;5.75;;;;;18.01;67.38;101666.81;5077362;27;45438;-47
2022/10/19 01:53:33;;;;;;;;;6.50;5.75;;;;;18.00;67.29;101667.72;5077964;27;45498;-48
2022/10/19 01:56:01;;;;;;;;;8.50;5.75;;;;;17.99;67.31;101658.94;5069603;27;45253;-46
2022/10/19 01:58:30;;;;;;;;;9.00;6.00;;;;;17.98;67.08;101659.84;5089577;27;46392;-50
2022/10/19 02:00:57;;;;;;;;;6.00;5.75;;;;;17.96;67.20;101653.75;5071816;28;45449;-51
2022/10/19 02:03:24;;;;;;;;;5.25;5.25;;;;;17.97;67.23;101647.53;5082290;27;45388;-50
2022/10/19 02:05:51;;;;;;;;;6.00;5.00;;;;;17.96;67.27;101632.56;5081414;27;45533;-49
2022/10/19 02:08:26;;;;;;;;;9.00;6.00;;;;;17.94;67.11;101631.78;5097541;27;45697;-52
2022/10/19 02:10:54;;;;;;;;;7.00;5.00;;;;;17.94;67.28;101625.63;5064689;27;45249;-49
2022/10/19 02:13:20;;;;;;;;;8.25;8.00;;;;;17.94;67.19;101622.97;5081187;27;45501;-50
2022/10/19 02:15:50;;;;;;;;;7.00;6.25;;;;;17.94;67.13;101622.97;5063950;27;55482;-49
2022/10/19 02:18:19;;;;;;;;;12.25;6.50;;;;;17.94;67.17;101617.69;5069478;27;45461;-51
2022/10/19 02:20:45;;;;;;;;;7.50;7.00;;;;;17.91;67.01;101621.31;5078490;27;45686;-50
2022/10/19 02:23:10;;;;;;;;;8.00;6.25;;;;;17.91;66.87;101618.66;5077984;27;45493;-47
2022/10/19 02:25:36;;;;;;;;;7.50;5.25;;;;;17.90;67.38;101619.59;5072208;27;73968;-48
2022/10/19 02:28:02;;;;;;;;;7.00;6.00;;;;;17.91;67.13;101609.88;5099648;27;57877;-49
2022/10/19 02:30:28;;;;;;;;;6.00;4.25;;;;;17.90;67.06;101609.00;5071540;27;47142;-47
2022/10/19 02:32:53;;;;;;;;;4.50;4.00;;;;;17.89;67.33;101601.13;5090451;27;46186;-49
2022/10/19 02:35:19;;;;;;;;;5.25;4.25;;;;;17.89;67.00;101603.78;5073945;27;46343;-48
2022/10/19 02:37:44;;;;;;;;;9.00;5.00;;;;;17.87;66.93;101603.84;5098583;27;70117;-48
2022/10/19 02:40:10;;;;;;;;;6.75;4.25;;;;;17.86;67.17;101599.47;5099316;27;48502;-51
2022/10/19 02:42:44;;;;;;;;;7.00;6.00;;;;;17.86;67.29;101593.31;5094800;27;45560;-47
2022/10/19 02:45:16;;;;;;;;;8.75;4.75;;;;;17.84;67.26;101599.50;5080715;27;46114;-53
2022/10/19 02:47:47;;;;;;;;;8.00;6.75;;;;;17.84;66.98;101596.00;5085551;27;45511;-49
2022/10/19 02:50:13;;;;;;;;;6.50;6.50;;;;;17.83;66.97;101589.84;5088582;27;45246;-51
2022/10/19 02:52:40;;;;;;;;;6.00;6.00;;;;;17.83;67.32;101581.91;5089286;27;45422;-48
2022/10/19 02:55:06;;;;;;;;;10.25;5.00;;;;;17.84;67.23;101569.50;5077327;27;45568;-50
2022/10/19 02:57:31;;;;;;;;;7.50;6.00;;;;;17.85;67.27;101576.53;5098560;27;45253;-48
2022/10/19 02:59:57;;;;;;;;;9.00;5.00;;;;;17.82;67.18;101564.28;5081530;27;45375;-50
2022/10/19 03:02:22;;;;;;;;;5.75;5.50;;;;;17.81;67.12;101562.56;5089277;27;45580;-48
2022/10/19 03:04:48;;;;;;;;;5.00;5.00;;;;;17.80;67.12;101558.19;5072874;27;45221;-55
2022/10/19 03:07:15;;;;;;;;;6.00;5.25;;;;;17.82;67.29;101555.50;5095064;27;45357;-46
2022/10/19 03:09:41;;;;;;;;;7.00;6.50;;;;;17.81;67.28;101559.94;5070435;27;45261;-50
2022/10/19 03:12:07;;;;;;;;;7.00;5.25;;;;;17.82;67.36;101555.50;5090091;27;45297;-49
2022/10/19 03:14:33;;;;;;;;;5.00;5.00;;;;;17.81;67.47;101549.34;5081496;27;47158;-49
2022/10/19 03:16:58;;;;;;;;;6.00;5.25;;;;;17.84;67.22;101554.47;5096841;27;45726;-51
2022/10/19 03:19:23;;;;;;;;;5.25;5.25;;;;;17.84;67.23;101556.28;5067136;27;56837;-51
2022/10/19 03:21:49;;;;;;;;;5.25;5.25;;;;;17.84;67.38;101554.47;5099676;27;45429;-48
2022/10/19 03:24:16;;;;;;;;;7.75;6.00;;;;;17.84;67.47;101546.53;5094469;27;46214;-48
2022/10/19 03:26:41;;;;;;;;;6.25;5.25;;;;;17.86;67.38;101545.66;5076347;27;45478;-49
2022/10/19 03:29:07;;;;;;;;;7.25;6.00;;;;;17.86;67.55;101554.44;5091597;27;59180;-47
2022/10/19 03:31:33;;;;;;;;;5.75;5.50;;;;;17.86;67.45;101545.66;5065459;27;45515;-49
2022/10/19 03:33:58;;;;;;;;;6.00;6.00;;;;;17.85;67.32;101539.47;5099626;27;45241;-46
2022/10/19 03:36:44;;;;;;;;;6.50;5.75;;;;;17.86;67.27;101538.56;5101496;27;45482;-48
2022/10/19 03:39:12;;;;;;;;;6.75;5.75;;;;;17.84;67.17;101537.75;5090015;27;45446;-49
2022/10/19 03:41:37;;;;;;;;;5.00;5.00;;;;;17.85;67.48;101539.47;5101124;27;45582;-47
2022/10/19 03:44:04;;;;;;;;;6.00;5.00;;;;;17.87;67.49;101544.72;5100288;27;75501;-46
2022/10/19 03:46:30;;;;;;;;;7.25;6.00;;;;;17.87;67.55;101537.66;5089963;27;45742;-53
2022/10/19 03:48:55;;;;;;;;;8.75;7.00;;;;;17.86;67.18;101533.25;5082875;27;61695;-52
2022/10/19 03:51:23;;;;;;;;;7.75;5.75;;;;;17.87;67.27;101532.34;5079150;28;73404;-49
2022/10/19 03:54:01;;;;;;;;;5.75;5.00;;;;;17.85;67.36;101528.88;5093760;27;45494;-51
2022/10/19 03:56:28;;;;;;;;;7.50;6.00;;;;;17.85;67.43;101523.59;5094532;27;45684;-51
2022/10/19 03:58:54;;;;;;;;;8.50;7.75;;;;;17.81;67.26;101528.16;5096142;27;45167;-51
2022/10/19 04:01:23;;;;;;;;;9.25;8.00;;;;;17.83;67.61;101522.81;5095389;27;45319;-48
2022/10/19 04:03:57;;;;;;;;;5.50;4.25;;;;;17.83;67.35;101526.31;5089650;27;45367;-50
2022/10/19 04:06:25;;;;;;;;;8.50;8.50;;;;;17.83;67.43;101530.75;5101549;27;45883;-48
2022/10/19 04:08:51;;;;;;;;;5.00;5.00;;;;;17.83;67.38;101533.38;5083577;27;46012;-52
2022/10/19 04:11:19;;;;;;;;;7.75;7.75;;;;;17.82;67.34;101527.22;5100321;27;48991;-52
2022/10/19 04:13:48;;;;;;;;;8.00;6.00;;;;;17.81;67.42;101524.63;5094539;27;45382;-50
2022/10/19 04:16:13;;;;;;;;;8.75;7.25;;;;;17.79;67.49;101522.03;5089404;27;45644;-46
2022/10/19 04:18:38;;;;;;;;;10.50;9.25;;;;;17.80;67.30;101521.13;5081657;27;53130;-52
2022/10/19 04:21:05;;;;;;;;;20.75;16.25;;;;;17.80;67.45;101522.94;5097458;27;64374;-49
2022/10/19 04:23:33;;;;;;;;;15.00;11.00;;;;;17.80;67.39;101528.22;5076734;27;45344;-46
2022/10/19 04:26:06;;;;;;;;;11.50;8.00;;;;;17.81;67.19;101525.50;5095387;27;45769;-46
2022/10/19 04:28:33;;;;;;;;;11.75;9.75;;;;;17.81;67.36;101517.56;5090415;27;45304;-46
2022/10/19 04:31:03;;;;;;;;;10.75;7.00;;;;;17.80;67.48;101517.63;5100392;27;45270;-47
2022/10/19 04:33:28;;;;;;;;;6.50;6.50;;;;;17.81;67.36;101517.56;5091163;27;47117;-50
2022/10/19 04:35:58;;;;;;;;;6.75;6.75;;;;;17.81;67.59;101521.97;5077570;28;69743;-50
2022/10/19 04:38:23;;;;;;;;;8.00;6.50;;;;;17.82;67.48;101524.56;5088090;27;45318;-52
2022/10/19 04:40:48;;;;;;;;;11.50;7.50;;;;;17.82;67.39;101524.56;5080738;27;51292;-48
2022/10/19 04:43:14;;;;;;;;;5.50;5.50;;;;;17.82;67.27;101513.97;5099268;27;70990;-46
2022/10/19 04:45:39;;;;;;;;;7.25;7.00;;;;;17.82;67.32;101526.38;5090652;27;74163;-47
2022/10/19 04:48:05;;;;;;;;;7.25;5.50;;;;;17.81;67.20;101517.56;5098805;27;65575;-47
2022/10/19 04:50:30;;;;;;;;;7.75;7.50;;;;;17.81;67.27;101512.28;5097433;27;45380;-50
2022/10/19 04:52:55;;;;;;;;;8.00;7.00;;;;;17.75;67.26;101504.59;5097796;27;65613;-46
2022/10/19 04:55:21;;;;;;;;;7.50;6.75;;;;;17.81;67.41;101506.97;5072861;27;67343;-46
2022/10/19 04:57:46;;;;;;;;;7.50;6.00;;;;;17.80;67.38;101507.03;5095441;27;64957;-46
2022/10/19 05:00:12;;;;;;;;;10.50;7.25;;;;;17.81;67.50;101500.81;5095268;27;70514;-47
2022/10/19 05:02:44;;;;;;;;;8.25;7.00;;;;;17.79;67.20;101490.28;5088256;27;48265;-49
2022/10/19 05:05:10;;;;;;;;;9.25;7.50;;;;;17.79;67.40;101484.13;5098631;27;45786;-47
2022/10/19 05:07:36;;;;;;;;;7.50;6.25;;;;;17.78;67.46;101475.34;5092354;27;45507;-46
2022/10/19 05:10:01;;;;;;;;;11.25;7.50;;;;;17.77;67.21;101476.25;5092401;27;45306;-46
2022/10/19 05:12:26;;;;;;;;;9.00;7.00;;;;;17.75;67.49;101467.53;5076506;27;56140;-49
2022/10/19 05:14:52;;;;;;;;;11.50;8.00;;;;;17.74;67.53;101464.94;5082524;27;65537;-46
2022/10/19 05:17:17;;;;;;;;;9.00;7.00;;;;;17.72;67.25;101464.16;5086851;27;55236;-49
2022/10/19 05:19:42;;;;;;;;;9.25;8.25;;;;;17.72;67.46;101465.00;5098061;27;69836;-47
2022/10/19 05:22:08;;;;;;;;;11.25;9.25;;;;;17.72;67.42;101462.34;5089574;27;72853;-45
2022/10/19 05:24:33;;;;;;;;;7.50;6.50;;;;;17.71;67.44;101460.66;5092987;27;59579;-47
2022/10/19 05:26:58;;;;;;;;;11.50;9.50;;;;;17.72;67.39;101462.34;5091222;27;51249;-49
2022/10/19 05:29:24;;;;;;;;;1.25;0.50;;;;;17.72;67.27;101472.09;5093004;27;60304;-52
2022/10/19 05:31:49;;;;;;;;;8.25;8.25;;;;;17.71;67.33;101467.75;5076307;27;46994;-53
2022/10/19 05:34:14;;;;;;;;;10.50;7.50;;;;;17.70;67.16;101463.38;5080092;27;55795;-46
2022/10/19 05:36:40;;;;;;;;;9.00;7.50;;;;;17.70;67.25;101458.06;5099695;27;56220;-47
2022/10/19 05:39:07;;;;;;;;;9.50;8.50;;;;;17.69;67.40;101457.22;5094051;27;45383;-48
2022/10/19 05:41:32;;;;;;;;;10.75;6.75;;;;;17.68;67.00;101459.94;5094005;27;45378;-48
2022/10/19 05:43:59;;;;;;;;;12.75;8.00;;;;;17.69;67.15;101451.94;5076853;27;45486;-51
2022/10/19 05:46:26;;;;;;;;;7.50;6.25;;;;;17.70;67.41;101445.69;5092112;27;45355;-52
2022/10/19 05:48:52;;;;;;;;;9.50;9.00;;;;;17.70;67.61;101444.84;5101765;27;45334;-50
2022/10/19 05:51:19;;;;;;;;;9.75;8.50;;;;;17.70;67.31;101437.75;5098192;27;45427;-49
2022/10/19 05:53:45;;;;;;;;;11.00;8.75;;;;;17.69;67.30;101438.69;5097443;27;45331;-56
2022/10/19 05:56:14;;;;;;;;;11.50;8.00;;;;;17.68;67.34;101434.31;5099328;27;45315;-46
2022/10/19 05:58:39;;;;;;;;;10.25;7.00;;;;;17.67;67.29;101435.28;5099142;27;45448;-49
2022/10/19 06:01:05;;;;;;;;;13.75;9.00;;;;;17.67;67.25;101429.09;5096243;27;71203;-50
2022/10/19 06:03:30;;;;;;;;;8.25;6.50;;;;;17.67;67.26;101431.75;5095937;27;45368;-53
2022/10/19 06:05:56;;;;;;;;;10.00;8.00;;;;;17.65;67.36;101427.41;5098653;27;45993;-51
2022/10/19 06:08:22;;;;;;;;;9.50;8.00;;;;;17.63;67.31;101425.72;5094386;27;45344;-52
2022/10/19 06:10:48;;;;;;;;;9.00;7.25;;;;;17.63;67.12;101436.31;5099052;27;46728;-49
2022/10/19 06:13:14;;;;;;;;;11.75;8.50;;;;;17.62;67.11;101446.06;5077509;27;45503;-50
2022/10/19 06:15:40;;;;;;;;;9.00;7.50;;;;;17.62;67.16;101447.84;5092594;27;45582;-51
2022/10/19 06:18:06;;;;;;;;;13.00;9.25;;;;;17.60;67.06;101453.22;5094283;27;59370;-49
2022/10/19 06:20:36;;;;;;;;;11.75;9.50;;;;;17.61;66.88;101454.06;5100083;27;45260;-47
2022/10/19 06:23:02;;;;;;;;;9.00;6.00;;;;;17.59;67.11;101446.19;5097413;27;45442;-50
2022/10/19 06:25:29;;;;;;;;;8.50;8.00;;;;;17.62;66.98;101447.84;5086096;27;45553;-49
2022/10/19 06:27:54;;;;;;;;;12.00;8.25;;;;;17.62;67.24;101443.41;5097162;27;45533;-50
2022/10/19 06:30:20;;;;;;;;;9.50;8.00;;;;;17.63;67.06;101438.97;5070270;28;45339;-49
2022/10/19 06:32:45;;;;;;;;;11.50;9.25;;;;;17.63;67.31;101446.91;5086659;27;73138;-49
2022/10/19 06:35:10;;;;;;;;;12.50;9.50;;;;;17.63;67.05;101446.91;5085422;27;45439;-48
2022/10/19 06:37:36;;;;;;;;;6.25;6.25;;;;;17.62;67.06;101445.19;5097179;27;45607;-46
2022/10/19 06:40:01;;;;;;;;;9.00;7.25;;;;;17.63;67.19;101449.53;5082750;27;57746;-54
2022/10/19 06:42:26;;;;;;;;;10.00;9.50;;;;;17.64;67.25;101454.78;5066838;27;45704;-56
2022/10/19 06:44:52;;;;;;;;;10.50;9.50;;;;;17.64;67.41;101448.63;5090702;27;45285;-55
2022/10/19 06:47:17;;;;;;;;;13.00;9.25;;;;;17.65;67.01;101442.38;5075536;28;66022;-55
2022/10/19 06:49:43;;;;;;;;;12.75;11.00;;;;;17.65;67.27;101440.63;5094689;27;68806;-52
2022/10/19 06:52:08;;;;;;;;;13.00;9.50;;;;;17.65;67.29;101440.63;5085464;27;46766;-53
2022/10/19 06:54:33;;;;;;;;;11.00;10.00;;;;;17.65;67.11;101437.09;5087703;27;63673;-52
2022/10/19 06:56:59;;;;;;;;;13.50;9.00;;;;;17.64;67.27;101438.91;5092084;27;68954;-49
2022/10/19 06:59:24;;;;;;;;;15.50;9.50;;;;;17.63;67.14;101433.66;5090078;27;45991;-48
2022/10/19 07:01:50;;;;;;;;;9.75;8.00;;;;;17.63;67.05;101445.09;5098226;27;60873;-50
2022/10/19 07:04:15;;;;;;;;;10.75;8.75;;;;;17.64;67.26;101444.19;5097152;27;62308;-47
2022/10/19 07:06:40;;;;;;;;;12.00;9.50;;;;;17.65;66.98;101442.38;5088448;27;67813;-49
2022/10/19 07:09:06;;;;;;;;;9.25;9.00;;;;;17.65;67.08;101443.28;5102007;27;74361;-47
2022/10/19 07:11:31;;;;;;;;;8.00;7.75;;;;;17.67;67.32;101432.63;5091020;27;45347;-46
2022/10/19 07:13:56;;;;;;;;;11.00;8.25;;;;;17.64;67.10;101438.91;5094970;27;63375;-47
2022/10/19 07:16:22;;;;;;;;;11.50;11.50;;;;;17.65;67.25;101424.75;5078723;27;52949;-50
2022/10/19 07:18:50;;;;;;;;;10.50;10.50;;;;;17.67;67.41;101434.38;5094840;27;47116;-46
2022/10/19 07:21:17;;;;;;;;;14.00;11.25;;;;;17.66;67.09;101425.59;5091528;27;45727;-45
2022/10/19 07:23:44;;;;;;;;;13.50;8.75;;;;;17.70;67.15;101434.25;5083575;27;45470;-48
2022/10/19 07:26:26;;;;;;;;;11.75;11.00;;;;;17.72;67.37;101417.34;5091797;27;45597;-52
2022/10/19 07:28:53;;;;;;;;;12.75;11.00;;;;;17.76;67.17;101416.31;5110712;27;45256;-47
2022/10/19 07:31:21;;;;;;;;;15.00;11.25;;;;;17.77;67.21;101415.34;5102330;27;45343;-47
2022/10/19 07:33:54;;;;;;;;;9.25;8.50;;;;;17.79;66.74;101416.16;5095122;27;45352;-46
2022/10/19 07:36:20;;;;;;;;;10.75;10.00;;;;;17.81;67.11;101416.97;5091774;27;45524;-50
2022/10/19 07:38:45;;;;;;;;;12.00;11.50;;;;;17.84;66.88;101413.28;5096727;27;46229;-45
2022/10/19 07:41:13;;;;;;;;;15.00;10.75;;;;;17.88;66.75;101417.53;5093456;27;73130;-48
2022/10/19 07:43:40;;;;;;;;;14.50;12.50;;;;;17.91;66.84;101428.00;5095444;27;45454;-50
2022/10/19 07:46:07;;;;;;;;;11.75;11.00;;;;;17.94;66.85;101419.06;5093709;27;45395;-46
2022/10/19 07:48:33;;;;;;;;;14.25;12.50;;;;;17.95;67.00;101421.63;5101228;27;45416;-49
2022/10/19 07:51:01;;;;;;;;;12.00;10.50;;;;;18.00;66.90;101424.06;5084455;27;45497;-46
2022/10/19 07:53:26;;;;;;;;;10.25;9.00;;;;;18.02;66.61;101424.84;5082216;27;45727;-48
2022/10/19 07:55:52;;;;;;;;;11.00;11.00;;;;;18.01;66.28;101418.69;5092547;27;56792;-47
2022/10/19 07:58:17;;;;;;;;;10.50;8.75;;;;;18.06;66.58;101420.25;5091287;27;72544;-47
2022/10/19 08:00:43;;;;;;;;;15.00;11.25;;;;;18.09;66.86;101410.38;5096570;27;58465;-51
2022/10/19 08:03:08;;;;;;;;;11.75;10.25;;;;;18.08;66.83;101413.09;5073612;27;45345;-47
2022/10/19 08:05:34;;;;;;;;;12.75;11.75;;;;;18.14;66.41;101418.97;5090184;27;61174;-46
2022/10/19 08:07:59;;;;;;;;;13.50;10.75;;;;;18.16;66.33;101418.88;5087620;27;47235;-46
2022/10/19 08:10:25;;;;;;;;;13.25;12.50;;;;;18.18;66.66;101419.66;5070349;28;64655;-47
2022/10/19 08:12:50;;;;;;;;;12.50;12.50;;;;;18.21;66.43;101416.88;5079590;27;45184;-52
2022/10/19 08:15:15;;;;;;;;;14.00;10.75;;;;;18.25;66.61;101414.94;5091699;27;67637;-48
2022/10/19 08:17:40;;;;;;;;;14.75;9.75;;;;;18.29;66.41;101411.19;5097232;27;58723;-49
2022/10/19 08:20:06;;;;;;;;;14.50;12.00;;;;;18.32;66.38;101411.91;5100275;27;58086;-48
2022/10/19 08:22:32;;;;;;;;;15.50;12.00;;;;;18.36;66.36;101418.81;5072146;27;45419;-48
2022/10/19 08:24:57;;;;;;;;;12.00;11.00;;;;;18.39;66.44;101410.69;5091411;27;45451;-47
2022/10/19 08:27:23;;;;;;;;;13.50;9.75;;;;;18.44;66.12;101404.31;5100847;27;63877;-48
2022/10/19 08:29:48;;;;;;;;;17.50;13.50;;;;;18.49;66.23;101407.59;5096407;27;68176;-46
2022/10/19 08:32:13;;;;;;;;;15.00;10.50;;;;;18.52;65.95;101407.41;5081561;27;45369;-47
2022/10/19 08:34:39;;;;;;;;;16.75;12.50;;;;;18.55;65.96;101408.13;5086225;27;70696;-51
2022/10/19 08:37:04;;;;;;;;;15.50;12.25;;;;;18.62;65.97;101405.19;5099066;27;46899;-50
2022/10/19 08:39:30;;;;;;;;;14.00;13.00;;;;;18.63;65.71;101398.94;5087123;27;71821;-50
2022/10/19 08:42:02;;;;;;;;;14.25;12.25;;;;;18.66;65.63;101393.47;5086456;27;45268;-50
2022/10/19 08:44:33;;;;;;;;;16.25;14.25;;;;;18.70;65.76;101393.25;5071091;27;45510;-51
2022/10/19 08:47:26;;;;;;;;;21.25;14.50;;;;;18.75;65.39;101393.00;5098900;27;45341;-47
2022/10/19 08:49:52;;;;;;;;;15.25;12.25;;;;;18.80;65.73;101391.00;5045072;27;46497;-51
2022/10/19 08:52:25;;;;;;;;;16.25;12.00;;;;;18.77;65.37;101393.81;5068950;27;65089;-49
2022/10/19 08:54:55;;;;;;;;;17.50;12.50;;;;;18.77;65.57;101389.38;5078954;27;45363;-50
2022/10/19 08:57:48;;;;;;;;;15.25;12.00;;;;;18.80;65.33;101388.34;5094647;27;45544;-46
2022/10/19 09:00:29;;;;;;;;;12.75;11.75;;;;;18.83;65.19;101385.56;5081808;27;45573;-48
2022/10/19 09:02:54;;;;;;;;;14.00;12.25;;;;;18.87;65.42;101388.91;5079077;27;45304;-49
2022/10/19 09:05:27;;;;;;;;;14.67;13.00;;;;;18.85;64.98;101396.94;5099521;27;45752;-52
2022/10/19 09:07:53;;;;;;;;;14.25;11.25;;;;;18.87;65.00;101403.03;5065172;27;47064;-48
2022/10/19 09:10:25;;;;;;;;;16.00;13.00;;;;;18.90;64.97;101399.38;5074677;27;45229;-51
2022/10/19 09:13:01;;;;;;;;;11.75;9.50;;;;;18.91;65.10;101388.69;5051184;27;45333;-48
2022/10/19 09:15:34;;;;;;;;;12.50;10.25;;;;;18.95;65.14;101390.25;5073488;27;46023;-47
2022/10/19 09:18:00;;;;;;;;;13.75;11.00;;;;;19.00;65.23;101387.38;5073920;27;45306;-50
2022/10/19 09:20:31;;;;;;;;;11.00;9.50;;;;;19.05;65.28;101379.16;5095105;27;45673;-45
2022/10/19 09:23:02;;;;;;;;;10.75;10.50;;;;;19.09;64.99;101368.31;5093028;27;45390;-49
2022/10/19 09:25:29;;;;;;;;;11.50;9.75;;;;;19.13;65.36;101371.66;5098113;27;45259;-46
2022/10/19 09:28:11;;;;;;;;;15.50;10.25;;;;;19.14;64.80;101374.22;5068399;27;46069;-51
2022/10/19 09:30:39;;;;;;;;;18.75;12.25;;;;;19.15;64.80;101377.72;5093642;27;45355;-53
2022/10/19 09:33:13;;;;;;;;;13.25;11.75;;;;;19.18;64.80;101376.72;5073126;27;45683;-52
2022/10/19 09:35:43;;;;;;;;;19.50;14.00;;;;;19.23;64.66;101370.22;5079931;27;45466;-49
2022/10/19 09:38:13;;;;;;;;;13.75;13.75;;;;;19.25;64.71;101365.69;5091466;27;46104;-46
2022/10/19 09:40:38;;;;;;;;;16.75;14.00;;;;;19.30;64.53;101365.44;5094093;27;45226;-51
2022/10/19 09:43:19;;;;;;;;;14.00;12.75;;;;;19.34;64.46;101365.19;5094020;27;66688;-51
2022/10/19 09:45:51;;;;;;;;;16.50;12.00;;;;;19.39;64.63;101369.38;5084611;27;45418;-47
2022/10/19 09:48:25;;;;;;;;;15.50;12.00;;;;;19.44;64.50;101364.69;5085541;27;46954;-52
2022/10/19 09:50:57;;;;;;;;;12.75;11.75;;;;;19.49;64.60;101367.97;5075786;27;45780;-51
2022/10/19 09:53:25;;;;;;;;;15.00;11.50;;;;;19.51;64.43;101366.94;5082972;27;45451;-49
2022/10/19 09:55:57;;;;;;;;;12.75;11.25;;;;;19.54;64.48;101360.59;5088210;27;45582;-51
2022/10/19 09:58:26;;;;;;;;;10.50;10.00;;;;;19.59;64.12;101365.66;5061423;27;47132;-48
2022/10/19 10:00:56;;;;;;;;;11.00;10.50;;;;;19.59;63.86;101357.72;5089818;27;45961;-48
2022/10/19 10:03:38;;;;;;;;;14.00;12.00;;;;;19.60;64.22;101356.75;5084394;27;45720;-54
2022/10/19 10:06:05;;;;;;;;;8.00;7.75;;;;;19.64;63.98;101347.69;5087924;27;45237;-52
2022/10/19 10:08:34;;;;;;;;;9.50;9.50;;;;;19.65;63.86;101357.34;5097440;27;46421;-50
2022/10/19 10:11:11;;;;;;;;;8.75;8.00;;;;;19.68;63.79;101349.22;5076700;28;45682;-50
2022/10/19 10:13:41;;;;;;;;;11.75;10.00;;;;;19.71;63.67;101346.41;5059701;27;45469;-50
2022/10/19 10:16:13;;;;;;;;;12.25;11.50;;;;;19.73;63.47;101344.53;5089683;27;45724;-52
2022/10/19 10:18:57;;;;;;;;;9.75;8.75;;;;;19.75;63.67;101337.34;5079167;27;46372;-53
2022/10/19 10:21:30;;;;;;;;;11.75;10.00;;;;;19.76;63.51;101336.44;5069876;27;45762;-52
2022/10/19 10:24:04;;;;;;;;;8.50;8.00;;;;;19.78;63.70;101339.84;5079186;27;45398;-51
2022/10/19 10:26:30;;;;;;;;;10.25;10.25;;;;;19.79;63.54;101335.38;5081837;27;45380;-52
2022/10/19 10:28:55;;;;;;;;;12.75;11.00;;;;;19.80;63.55;101335.28;5087632;27;45592;-49
2022/10/19 10:31:25;;;;;;;;;12.75;10.25;;;;;19.79;63.69;101327.41;5095886;27;45440;-51
2022/10/19 10:34:02;;;;;;;;;11.75;10.00;;;;;19.79;63.45;101316.78;5077324;28;45411;-50
2022/10/19 10:36:29;;;;;;;;;11.50;10.00;;;;;19.81;63.28;101318.41;5073928;27;149042;-48
2022/10/19 10:39:02;;;;;;;;;14.75;11.50;;;;;19.85;63.46;101304.03;5054645;27;46486;-50
2022/10/19 10:41:28;;;;;;;;;9.25;9.25;;;;;19.86;63.67;101303.06;5081896;27;45212;-50
2022/10/19 10:43:54;;;;;;;;;13.25;10.50;;;;;19.90;63.79;101304.63;5078595;28;45299;-51
2022/10/19 10:46:42;;;;;;;;;11.00;10.00;;;;;19.90;63.61;101296.66;5063404;28;45391;-49
2022/10/19 10:49:20;;;;;;;;;13.00;9.75;;;;;19.96;63.55;101286.63;5081414;27;45521;-51
2022/10/19 10:51:49;;;;;;;;;13.50;10.50;;;;;20.01;63.17;101277.44;5069078;27;45409;-50
2022/10/19 10:54:19;;;;;;;;;9.50;9.25;;;;;20.06;63.66;101279.81;5097238;27;45282;-52
2022/10/19 10:56:59;;;;;;;;;11.50;11.50;;;;;20.12;63.49;101282.13;5088550;27;45308;-52
2022/10/19 10:59:50;;;;;;;;;9.00;8.00;;;;;20.17;62.92;101276.50;5073464;27;47143;-53
2022/10/19 11:02:33;;;;;;;;;12.75;10.00;;;;;20.21;62.63;101273.59;5056354;27;45512;-52
2022/10/19 11:05:28;;;;;;;;;11.25;10.75;;;;;20.24;63.12;101272.59;5071634;28;45434;-52
2022/10/19 11:07:57;;;;;;;;;12.25;11.00;;;;;20.26;62.58;101271.53;5095775;27;45331;-51
2022/10/19 11:10:36;;;;;;;;;10.25;8.75;;;;;20.29;62.82;101263.38;5098950;27;46403;-51
2022/10/19 11:13:11;;;;;;;;;8.25;7.00;;;;;20.35;62.73;101271.94;5099008;27;45844;-52
2022/10/19 11:15:52;;;;;;;;;10.50;8.00;;;;;20.39;62.65;101265.47;5079637;27;45554;-50
2022/10/19 11:18:56;;;;;;;;;12.75;9.25;;;;;20.43;62.50;101254.59;5049975;28;45266;-51
2022/10/19 11:21:41;;;;;;;;;10.00;9.75;;;;;20.49;62.39;101245.38;5048434;28;45455;-51
2022/10/19 11:24:16;;;;;;;;;10.00;9.50;;;;;20.53;62.76;101238.91;5081312;27;45448;-51
2022/10/19 11:26:55;;;;;;;;;9.00;9.00;;;;;20.57;62.10;101237.78;5099634;27;45279;-50